sensor_id;sensor_type;location;lat;lon;timestamp;pressure;altitude;pressure_sealevel;temperature;humidity
34124;BME280;13153;52.316;21.166;2023-03-15T00:00:54;98559.84;;;14.49;58.35
34124;BME280;13153;52.316;21.166;2023-03-15T00:03:22;98571.50;;;14.42;58.61
34124;BME280;13153;52.316;21.166;2023-03-15T00:05:51;98585.53;;;14.44;58.36
34124;BME280;13153;52.316;21.166;2023-03-15T00:08:17;98584.63;;;14.45;58.57
34124;BME280;13153;52.316;21.166;2023-03-15T00:10:45;98575.78;;;14.46;58.91
34124;BME280;13153;52.316;21.166;2023-03-15T00:13:13;98581.09;;;14.46;58.43
34124;BME280;13153;52.316;21.166;2023-03-15T00:15:49;98583.69;;;14.49;58.47
34124;BME280;13153;52.316;21.166;2023-03-15T00:18:17;98592.50;;;14.48;58.49
34124;BME280;13153;52.316;21.166;2023-03-15T00:20:45;98591.66;;;14.46;58.22
34124;BME280;13153;52.316;21.166;2023-03-15T00:23:12;98593.34;;;14.50;58.33
34124;BME280;13153;52.316;21.166;2023-03-15T00:25:39;98595.16;;;14.48;58.27
34124;BME280;13153;52.316;21.166;2023-03-15T00:28:05;98598.72;;;14.47;58.30
34124;BME280;13153;52.316;21.166;2023-03-15T00:30:31;98605.69;;;14.51;58.39
34124;BME280;13153;52.316;21.166;2023-03-15T00:32:57;98599.47;;;14.54;57.94
34124;BME280;13153;52.316;21.166;2023-03-15T00:35:23;98605.59;;;14.58;58.17
34124;BME280;13153;52.316;21.166;2023-03-15T00:37:54;98605.59;;;14.58;58.11
34124;BME280;13153;52.316;21.166;2023-03-15T00:40:21;98610.03;;;14.56;57.97
34124;BME280;13153;52.316;21.166;2023-03-15T00:42:48;98617.97;;;14.56;57.78
34124;BME280;13153;52.316;21.166;2023-03-15T00:45:19;98630.28;;;14.58;57.52
34124;BME280;13153;52.316;21.166;2023-03-15T00:47:54;98628.50;;;14.59;57.38
34124;BME280;13153;52.316;21.166;2023-03-15T00:50:21;98640.00;;;14.58;57.43
34124;BME280;13153;52.316;21.166;2023-03-15T00:52:48;98645.41;;;14.50;57.19
34124;BME280;13153;52.316;21.166;2023-03-15T00:55:17;98685.53;;;14.23;55.20
34124;BME280;13153;52.316;21.166;2023-03-15T00:57:45;98714.94;;;14.01;54.95
34124;BME280;13153;52.316;21.166;2023-03-15T01:00:19;98723.06;;;13.87;53.99
34124;BME280;13153;52.316;21.166;2023-03-15T01:02:46;98730.38;;;13.70;53.63
34124;BME280;13153;52.316;21.166;2023-03-15T01:05:12;98757.16;;;13.40;52.93
34124;BME280;13153;52.316;21.166;2023-03-15T01:07:38;98760.94;;;13.14;53.11
34124;BME280;13153;52.316;21.166;2023-03-15T01:10:05;98781.31;;;12.97;53.17
34124;BME280;13153;52.316;21.166;2023-03-15T01:12:33;98796.44;;;12.77;53.41
34124;BME280;13153;52.316;21.166;2023-03-15T01:15:04;98814.13;;;12.69;53.57
34124;BME280;13153;52.316;21.166;2023-03-15T01:17:30;98831.84;;;12.51;53.31
34124;BME280;13153;52.316;21.166;2023-03-15T01:19:58;98858.31;;;12.33;52.40
34124;BME280;13153;52.316;21.166;2023-03-15T01:22:24;98849.59;;;12.19;51.88
34124;BME280;13153;52.316;21.166;2023-03-15T01:24:50;98852.31;;;12.04;51.93
34124;BME280;13153;52.316;21.166;2023-03-15T01:27:16;98895.41;;;11.95;52.21
34124;BME280;13153;52.316;21.166;2023-03-15T01:29:42;98892.81;;;11.78;52.81
34124;BME280;13153;52.316;21.166;2023-03-15T01:32:08;98888.38;;;11.74;52.51
34124;BME280;13153;52.316;21.166;2023-03-15T01:34:35;98914.78;;;11.53;52.29
34124;BME280;13153;52.316;21.166;2023-03-15T01:37:01;98926.22;;;11.41;52.53
34124;BME280;13153;52.316;21.166;2023-03-15T01:39:30;98935.88;;;11.24;52.48
34124;BME280;13153;52.316;21.166;2023-03-15T01:41:56;98949.88;;;11.12;52.89
34124;BME280;13153;52.316;21.166;2023-03-15T01:44:22;98959.53;;;11.16;52.51
34124;BME280;13153;52.316;21.166;2023-03-15T01:46:49;98951.66;;;11.16;53.04
34124;BME280;13153;52.316;21.166;2023-03-15T01:49:32;98977.97;;;11.07;53.17
34124;BME280;13153;52.316;21.166;2023-03-15T01:52:22;98979.69;;;10.85;53.36
34124;BME280;13153;52.316;21.166;2023-03-15T01:55:06;98988.44;;;10.77;53.79
34124;BME280;13153;52.316;21.166;2023-03-15T01:57:40;98986.66;;;10.68;53.85
34124;BME280;13153;52.316;21.166;2023-03-15T02:00:16;98983.16;;;10.71;53.38
34124;BME280;13153;52.316;21.166;2023-03-15T02:05:22;98998.91;;;10.62;52.89
34124;BME280;13153;52.316;21.166;2023-03-15T02:07:50;99027.84;;;10.63;52.57
34124;BME280;13153;52.316;21.166;2023-03-15T02:10:34;99045.34;;;10.58;52.31
34124;BME280;13153;52.316;21.166;2023-03-15T02:13:02;99053.22;;;10.56;51.92
34124;BME280;13153;52.316;21.166;2023-03-15T02:15:29;99079.50;;;10.52;51.98
34124;BME280;13153;52.316;21.166;2023-03-15T02:17:55;99099.63;;;10.47;51.85
34124;BME280;13153;52.316;21.166;2023-03-15T02:20:46;99116.25;;;10.41;51.92
34124;BME280;13153;52.316;21.166;2023-03-15T02:23:19;99112.75;;;10.42;51.46
34124;BME280;13153;52.316;21.166;2023-03-15T02:28:29;99139.97;;;10.49;50.94
34124;BME280;13153;52.316;21.166;2023-03-15T02:30:56;99134.69;;;10.49;51.50
34124;BME280;13153;52.316;21.166;2023-03-15T02:33:48;99154.84;;;10.45;50.65
34124;BME280;13153;52.316;21.166;2023-03-15T02:36:23;99169.72;;;10.45;51.20
34124;BME280;13153;52.316;21.166;2023-03-15T02:38:51;99162.72;;;10.44;51.32
34124;BME280;13153;52.316;21.166;2023-03-15T02:41:38;99174.09;;;10.41;51.10
34124;BME280;13153;52.316;21.166;2023-03-15T02:47:19;99197.81;;;10.50;50.34
34124;BME280;13153;52.316;21.166;2023-03-15T02:49:50;99207.41;;;10.45;50.74
34124;BME280;13153;52.316;21.166;2023-03-15T02:52:19;99217.03;;;10.37;50.55
34124;BME280;13153;52.316;21.166;2023-03-15T02:54:45;99217.91;;;10.39;51.11
34124;BME280;13153;52.316;21.166;2023-03-15T02:57:16;99234.56;;;10.43;50.11
34124;BME280;13153;52.316;21.166;2023-03-15T02:59:42;99244.25;;;10.48;50.26
34124;BME280;13153;52.316;21.166;2023-03-15T03:02:10;99246.03;;;10.51;50.80
34124;BME280;13153;52.316;21.166;2023-03-15T03:04:37;99253.94;;;10.54;50.25
34124;BME280;13153;52.316;21.166;2023-03-15T03:07:03;99250.41;;;10.50;50.10
34124;BME280;13153;52.316;21.166;2023-03-15T03:09:29;99255.69;;;10.50;49.72
34124;BME280;13153;52.316;21.166;2023-03-15T03:11:55;99254.78;;;10.47;50.20
34124;BME280;13153;52.316;21.166;2023-03-15T03:14:22;99269.69;;;10.48;50.16
34124;BME280;13153;52.316;21.166;2023-03-15T03:16:49;99273.19;;;10.50;50.12
34124;BME280;13153;52.316;21.166;2023-03-15T03:19:16;99270.59;;;10.51;49.88
34124;BME280;13153;52.316;21.166;2023-03-15T03:21:42;99284.56;;;10.47;50.22
34124;BME280;13153;52.316;21.166;2023-03-15T03:24:09;99291.63;;;10.51;50.19
34124;BME280;13153;52.316;21.166;2023-03-15T03:26:36;99296.88;;;10.51;50.39
34124;BME280;13153;52.316;21.166;2023-03-15T03:29:03;99308.31;;;10.53;50.20
34124;BME280;13153;52.316;21.166;2023-03-15T03:31:32;99313.53;;;10.52;49.88
34124;BME280;13153;52.316;21.166;2023-03-15T03:33:59;99316.16;;;10.50;50.11
34124;BME280;13153;52.316;21.166;2023-03-15T03:36:25;99309.13;;;10.49;50.07
34124;BME280;13153;52.316;21.166;2023-03-15T03:38:52;99309.09;;;10.46;50.47
34124;BME280;13153;52.316;21.166;2023-03-15T03:41:21;99320.53;;;10.48;50.15
34124;BME280;13153;52.316;21.166;2023-03-15T03:43:47;99335.41;;;10.46;50.24
34124;BME280;13153;52.316;21.166;2023-03-15T03:46:13;99345.03;;;10.44;50.34
34124;BME280;13153;52.316;21.166;2023-03-15T03:48:39;99348.59;;;10.49;50.59
34124;BME280;13153;52.316;21.166;2023-03-15T03:51:05;99351.22;;;10.51;49.76
34124;BME280;13153;52.316;21.166;2023-03-15T03:53:30;99354.69;;;10.45;50.26
34124;BME280;13153;52.316;21.166;2023-03-15T03:55:56;99355.50;;;10.41;50.25
34124;BME280;13153;52.316;21.166;2023-03-15T03:58:22;99364.28;;;10.39;50.83
34124;BME280;13153;52.316;21.166;2023-03-15T04:00:50;99371.31;;;10.40;50.99
34124;BME280;13153;52.316;21.166;2023-03-15T04:03:18;99388.88;;;10.45;50.68
34124;BME280;13153;52.316;21.166;2023-03-15T04:05:45;99395.88;;;10.46;50.46
34124;BME280;13153;52.316;21.166;2023-03-15T04:08:11;99410.75;;;10.40;50.70
34124;BME280;13153;52.316;21.166;2023-03-15T04:10:36;99408.13;;;10.40;51.24
34124;BME280;13153;52.316;21.166;2023-03-15T04:13:02;99403.78;;;10.46;51.00
34124;BME280;13153;52.316;21.166;2023-03-15T04:15:28;99392.41;;;10.49;50.48
34124;BME280;13153;52.316;21.166;2023-03-15T04:17:54;99404.69;;;10.50;51.00
34124;BME280;13153;52.316;21.166;2023-03-15T04:20:25;99415.22;;;10.51;50.68
34124;BME280;13153;52.316;21.166;2023-03-15T04:22:52;99420.50;;;10.51;50.87
34124;BME280;13153;52.316;21.166;2023-03-15T04:25:19;99417.88;;;10.51;50.89
34124;BME280;13153;52.316;21.166;2023-03-15T04:27:45;99431.88;;;10.50;50.89
34124;BME280;13153;52.316;21.166;2023-03-15T04:30:26;99424.88;;;10.52;50.88
34124;BME280;13153;52.316;21.166;2023-03-15T04:32:53;99431.88;;;10.50;50.79
34124;BME280;13153;52.316;21.166;2023-03-15T04:35:34;99428.38;;;10.51;51.11
34124;BME280;13153;52.316;21.166;2023-03-15T04:38:00;99426.56;;;10.47;50.77
34124;BME280;13153;52.316;21.166;2023-03-15T04:40:26;99432.75;;;10.49;51.00
34124;BME280;13153;52.316;21.166;2023-03-15T04:42:53;99427.50;;;10.51;50.71
34124;BME280;13153;52.316;21.166;2023-03-15T04:45:25;99436.25;;;10.50;50.79
34124;BME280;13153;52.316;21.166;2023-03-15T04:47:52;99440.59;;;10.46;50.43
34124;BME280;13153;52.316;21.166;2023-03-15T04:50:20;99443.16;;;10.39;50.27
34124;BME280;13153;52.316;21.166;2023-03-15T04:52:47;99444.81;;;10.31;50.32
34124;BME280;13153;52.316;21.166;2023-03-15T04:55:13;99450.91;;;10.27;49.84
34124;BME280;13153;52.316;21.166;2023-03-15T04:57:39;99448.28;;;10.28;49.89
34124;BME280;13153;52.316;21.166;2023-03-15T05:00:07;99444.78;;;10.29;49.84
34124;BME280;13153;52.316;21.166;2023-03-15T05:02:39;99452.69;;;10.29;49.44
34124;BME280;13153;52.316;21.166;2023-03-15T05:05:11;99450.09;;;10.32;49.71
34124;BME280;13153;52.316;21.166;2023-03-15T05:07:37;99459.66;;;10.25;49.51
34124;BME280;13153;52.316;21.166;2023-03-15T05:10:05;99462.25;;;10.24;49.69
34124;BME280;13153;52.316;21.166;2023-03-15T05:12:31;99466.69;;;10.28;49.77
34124;BME280;13153;52.316;21.166;2023-03-15T05:14:58;99465.88;;;10.32;49.51
34124;BME280;13153;52.316;21.166;2023-03-15T05:17:24;99469.34;;;10.31;49.08
34124;BME280;13153;52.316;21.166;2023-03-15T05:19:50;99479.81;;;10.27;48.92
34124;BME280;13153;52.316;21.166;2023-03-15T05:22:16;99482.41;;;10.25;48.99
34124;BME280;13153;52.316;21.166;2023-03-15T05:24:43;99494.78;;;10.32;49.32
34124;BME280;13153;52.316;21.166;2023-03-15T05:27:10;99511.50;;;10.36;49.11
34124;BME280;13153;52.316;21.166;2023-03-15T05:29:37;99518.47;;;10.34;49.42
34124;BME280;13153;52.316;21.166;2023-03-15T05:32:04;99518.53;;;10.41;48.99
34124;BME280;13153;52.316;21.166;2023-03-15T05:34:30;99520.38;;;10.48;49.06
34124;BME280;13153;52.316;21.166;2023-03-15T05:36:57;99521.28;;;10.50;48.97
34124;BME280;13153;52.316;21.166;2023-03-15T05:39:24;99518.69;;;10.52;49.47
34124;BME280;13153;52.316;21.166;2023-03-15T05:41:49;99524.84;;;10.54;49.41
34124;BME280;13153;52.316;21.166;2023-03-15T05:44:15;99527.50;;;10.55;48.79
34124;BME280;13153;52.316;21.166;2023-03-15T05:46:42;99528.34;;;10.54;48.42
34124;BME280;13153;52.316;21.166;2023-03-15T05:49:08;99530.94;;;10.51;48.42
34124;BME280;13153;52.316;21.166;2023-03-15T05:51:34;99528.31;;;10.50;48.39
34124;BME280;13153;52.316;21.166;2023-03-15T05:54:00;99535.19;;;10.42;48.29
34124;BME280;13153;52.316;21.166;2023-03-15T05:56:26;99553.66;;;10.45;48.18
34124;BME280;13153;52.316;21.166;2023-03-15T05:58:52;99554.53;;;10.45;47.86
34124;BME280;13153;52.316;21.166;2023-03-15T06:01:17;99559.78;;;10.45;47.65
34124;BME280;13153;52.316;21.166;2023-03-15T06:03:43;99570.34;;;10.48;47.38
34124;BME280;13153;52.316;21.166;2023-03-15T06:06:09;99577.44;;;10.54;48.35
34124;BME280;13153;52.316;21.166;2023-03-15T06:08:35;99581.91;;;10.59;48.42
34124;BME280;13153;52.316;21.166;2023-03-15T06:11:01;99599.53;;;10.65;48.70
34124;BME280;13153;52.316;21.166;2023-03-15T06:13:26;99588.16;;;10.68;48.56
34124;BME280;13153;52.316;21.166;2023-03-15T06:15:52;99601.41;;;10.75;48.30
34124;BME280;13153;52.316;21.166;2023-03-15T06:18:18;99603.16;;;10.73;47.35
34124;BME280;13153;52.316;21.166;2023-03-15T06:20:44;99603.09;;;10.69;47.07
34124;BME280;13153;52.316;21.166;2023-03-15T06:23:10;99607.41;;;10.64;46.82
34124;BME280;13153;52.316;21.166;2023-03-15T06:25:36;99613.50;;;10.61;46.90
34124;BME280;13153;52.316;21.166;2023-03-15T06:28:02;99615.16;;;10.54;47.10
34124;BME280;13153;52.316;21.166;2023-03-15T06:30:27;99623.00;;;10.51;47.45
34124;BME280;13153;52.316;21.166;2023-03-15T06:32:54;99626.53;;;10.52;47.59
34124;BME280;13153;52.316;21.166;2023-03-15T06:35:20;99624.75;;;10.51;47.45
34124;BME280;13153;52.316;21.166;2023-03-15T06:37:47;99642.25;;;10.49;47.64
34124;BME280;13153;52.316;21.166;2023-03-15T06:40:13;99651.88;;;10.48;47.25
34124;BME280;13153;52.316;21.166;2023-03-15T06:42:40;99659.84;;;10.53;47.16
34124;BME280;13153;52.316;21.166;2023-03-15T06:45:08;99668.66;;;10.56;46.32
34124;BME280;13153;52.316;21.166;2023-03-15T06:47:35;99674.91;;;10.63;46.28
34124;BME280;13153;52.316;21.166;2023-03-15T06:50:01;99672.41;;;10.71;46.07
34124;BME280;13153;52.316;21.166;2023-03-15T06:52:27;99681.31;;;10.82;45.71
34124;BME280;13153;52.316;21.166;2023-03-15T06:54:52;99695.44;;;10.87;46.12
34124;BME280;13153;52.316;21.166;2023-03-15T06:57:18;99692.81;;;10.88;46.25
34124;BME280;13153;52.316;21.166;2023-03-15T06:59:44;99694.56;;;10.88;45.99
34124;BME280;13153;52.316;21.166;2023-03-15T07:02:15;99697.25;;;10.91;46.00
34124;BME280;13153;52.316;21.166;2023-03-15T07:04:42;99700.88;;;11.02;45.26
34124;BME280;13153;52.316;21.166;2023-03-15T07:07:13;99708.03;;;11.12;45.56
34124;BME280;13153;52.316;21.166;2023-03-15T07:09:39;99712.72;;;11.35;44.92
34124;BME280;13153;52.316;21.166;2023-03-15T07:12:06;99717.31;;;11.51;44.49
34124;BME280;13153;52.316;21.166;2023-03-15T07:14:33;99720.97;;;11.65;44.55
34124;BME280;13153;52.316;21.166;2023-03-15T07:16:59;99721.94;;;11.73;44.57
34124;BME280;13153;52.316;21.166;2023-03-15T07:19:25;99714.06;;;11.76;44.31
34124;BME280;13153;52.316;21.166;2023-03-15T07:21:51;99716.66;;;11.72;44.33
34124;BME280;13153;52.316;21.166;2023-03-15T07:24:17;99714.78;;;11.62;44.37
34124;BME280;13153;52.316;21.166;2023-03-15T07:26:43;99702.53;;;11.67;44.37
34124;BME280;13153;52.316;21.166;2023-03-15T07:29:09;99715.78;;;11.71;43.80
34124;BME280;13153;52.316;21.166;2023-03-15T07:31:35;99720.19;;;11.74;43.96
34124;BME280;13153;52.316;21.166;2023-03-15T07:34:01;99709.88;;;11.90;44.09
34124;BME280;13153;52.316;21.166;2023-03-15T07:36:27;99724.97;;;12.07;43.29
34124;BME280;13153;52.316;21.166;2023-03-15T07:38:53;99722.41;;;12.17;43.09
34124;BME280;13153;52.316;21.166;2023-03-15T07:41:19;99726.84;;;12.21;42.74
34124;BME280;13153;52.316;21.166;2023-03-15T07:43:45;99733.84;;;12.19;42.55
34124;BME280;13153;52.316;21.166;2023-03-15T07:46:11;99728.44;;;12.03;42.61
34124;BME280;13153;52.316;21.166;2023-03-15T07:48:37;99730.97;;;11.92;42.29
34124;BME280;13153;52.316;21.166;2023-03-15T07:51:03;99736.09;;;11.80;42.73
34124;BME280;13153;52.316;21.166;2023-03-15T07:53:29;99739.47;;;11.70;42.85
34124;BME280;13153;52.316;21.166;2023-03-15T07:55:55;99741.19;;;11.66;43.44
34124;BME280;13153;52.316;21.166;2023-03-15T07:58:20;99750.78;;;11.61;43.32
34124;BME280;13153;52.316;21.166;2023-03-15T08:00:47;99757.75;;;11.53;42.84
34124;BME280;13153;52.316;21.166;2023-03-15T08:03:12;99758.59;;;11.52;43.03
34124;BME280;13153;52.316;21.166;2023-03-15T08:05:38;99775.34;;;11.58;42.79
34124;BME280;13153;52.316;21.166;2023-03-15T08:08:05;99767.78;;;11.84;42.69
34124;BME280;13153;52.316;21.166;2023-03-15T08:10:31;99773.47;;;12.24;42.82
34124;BME280;13153;52.316;21.166;2023-03-15T08:12:57;99785.25;;;12.63;41.73
34124;BME280;13153;52.316;21.166;2023-03-15T08:15:23;99786.31;;;12.86;40.92
34124;BME280;13153;52.316;21.166;2023-03-15T08:17:49;99788.34;;;13.19;40.48
34124;BME280;13153;52.316;21.166;2023-03-15T08:20:15;99796.38;;;13.43;39.54
34124;BME280;13153;52.316;21.166;2023-03-15T08:22:47;99796.50;;;13.65;39.54
34124;BME280;13153;52.316;21.166;2023-03-15T08:25:17;99796.53;;;13.68;39.23
34124;BME280;13153;52.316;21.166;2023-03-15T08:27:44;99803.63;;;13.79;38.43
34124;BME280;13153;52.316;21.166;2023-03-15T08:30:12;99803.63;;;13.92;38.27
34124;BME280;13153;52.316;21.166;2023-03-15T08:32:40;99810.69;;;13.89;37.86
34124;BME280;13153;52.316;21.166;2023-03-15T08:35:08;99823.94;;;13.96;39.35
34124;BME280;13153;52.316;21.166;2023-03-15T08:37:34;99818.63;;;13.89;38.38
34124;BME280;13153;52.316;21.166;2023-03-15T08:40:00;99824.78;;;13.88;38.31
34124;BME280;13153;52.316;21.166;2023-03-15T08:42:30;99834.47;;;13.79;38.04
34124;BME280;13153;52.316;21.166;2023-03-15T08:44:55;99850.19;;;13.53;38.55
34124;BME280;13153;52.316;21.166;2023-03-15T08:47:24;99844.81;;;13.41;38.43
34124;BME280;13153;52.316;21.166;2023-03-15T08:49:50;99855.31;;;13.26;38.46
34124;BME280;13153;52.316;21.166;2023-03-15T08:52:18;99853.56;;;13.26;39.40
34124;BME280;13153;52.316;21.166;2023-03-15T08:54:46;99860.69;;;13.44;38.58
34124;BME280;13153;52.316;21.166;2023-03-15T08:57:12;99860.88;;;13.73;38.51
34124;BME280;13153;52.316;21.166;2023-03-15T08:59:38;99864.53;;;14.07;38.26
34124;BME280;13153;52.316;21.166;2023-03-15T09:02:05;99883.16;;;14.34;36.58
34124;BME280;13153;52.316;21.166;2023-03-15T09:04:32;99873.50;;;14.45;35.90
34124;BME280;13153;52.316;21.166;2023-03-15T09:06:58;99882.31;;;14.40;35.27
34124;BME280;13153;52.316;21.166;2023-03-15T09:09:24;99885.75;;;14.19;35.28
34124;BME280;13153;52.316;21.166;2023-03-15T09:11:50;99886.59;;;14.10;35.26
34124;BME280;13153;52.316;21.166;2023-03-15T09:14:16;99897.13;;;14.00;35.31
34124;BME280;13153;52.316;21.166;2023-03-15T09:16:41;99888.28;;;13.93;36.14
34124;BME280;13153;52.316;21.166;2023-03-15T09:19:07;99904.16;;;13.93;36.08
34124;BME280;13153;52.316;21.166;2023-03-15T09:21:33;99904.16;;;13.93;35.90
34124;BME280;13153;52.316;21.166;2023-03-15T09:23:59;99897.09;;;13.95;36.39
34124;BME280;13153;52.316;21.166;2023-03-15T09:26:25;99902.41;;;13.98;36.75
34124;BME280;13153;52.316;21.166;2023-03-15T09:28:51;99905.00;;;13.91;37.21
34124;BME280;13153;52.316;21.166;2023-03-15T09:31:16;99900.63;;;13.96;37.41
34124;BME280;13153;52.316;21.166;2023-03-15T09:33:42;99906.88;;;14.07;36.98
34124;BME280;13153;52.316;21.166;2023-03-15T09:36:11;99909.53;;;14.10;36.94
34124;BME280;13153;52.316;21.166;2023-03-15T09:38:37;99902.53;;;14.21;36.56
34124;BME280;13153;52.316;21.166;2023-03-15T09:41:03;99901.69;;;14.36;35.93
34124;BME280;13153;52.316;21.166;2023-03-15T09:43:58;99906.06;;;14.26;36.02
34124;BME280;13153;52.316;21.166;2023-03-15T09:46:39;99905.19;;;14.23;36.53
34124;BME280;13153;52.316;21.166;2023-03-15T09:49:36;99906.91;;;14.14;35.70
34124;BME280;13153;52.316;21.166;2023-03-15T09:58:01;99910.44;;;14.13;35.97
34124;BME280;13153;52.316;21.166;2023-03-15T10:00:48;99913.09;;;14.18;35.49
34124;BME280;13153;52.316;21.166;2023-03-15T10:03:46;99919.31;;;14.29;35.51
34124;BME280;13153;52.316;21.166;2023-03-15T10:06:42;99912.28;;;14.31;35.58
34124;BME280;13153;52.316;21.166;2023-03-15T10:09:24;99914.06;;;14.37;35.25
34124;BME280;13153;52.316;21.166;2023-03-15T10:12:08;99919.41;;;14.50;35.66
34124;BME280;13153;52.316;21.166;2023-03-15T10:15:00;99913.25;;;14.56;35.52
34124;BME280;13153;52.316;21.166;2023-03-15T10:20:59;99907.09;;;14.69;35.80
34124;BME280;13153;52.316;21.166;2023-03-15T10:23:46;99900.03;;;14.73;35.03
34124;BME280;13153;52.316;21.166;2023-03-15T10:26:18;99904.44;;;14.66;35.15
34124;BME280;13153;52.316;21.166;2023-03-15T10:28:46;99901.78;;;14.62;34.35
34124;BME280;13153;52.316;21.166;2023-03-15T10:31:24;99905.28;;;14.53;35.46
34124;BME280;13153;52.316;21.166;2023-03-15T10:33:52;99911.47;;;14.50;35.64
34124;BME280;13153;52.316;21.166;2023-03-15T10:36:23;99904.41;;;14.57;35.55
34124;BME280;13153;52.316;21.166;2023-03-15T10:38:50;99906.19;;;14.58;35.31
34124;BME280;13153;52.316;21.166;2023-03-15T10:41:36;99902.63;;;14.42;34.14
34124;BME280;13153;52.316;21.166;2023-03-15T10:44:10;99906.06;;;14.21;33.67
34124;BME280;13153;52.316;21.166;2023-03-15T10:46:36;99897.28;;;14.33;33.92
34124;BME280;13153;52.316;21.166;2023-03-15T10:49:14;99894.69;;;14.45;33.94
34124;BME280;13153;52.316;21.166;2023-03-15T10:51:44;99898.25;;;14.58;34.25
34124;BME280;13153;52.316;21.166;2023-03-15T10:54:22;99905.31;;;14.64;34.07
34124;BME280;13153;52.316;21.166;2023-03-15T10:57:14;99905.31;;;14.62;34.14
34124;BME280;13153;52.316;21.166;2023-03-15T10:59:59;99911.50;;;14.69;34.29
34124;BME280;13153;52.316;21.166;2023-03-15T11:03:04;99908.00;;;14.73;35.00
34124;BME280;13153;52.316;21.166;2023-03-15T11:05:46;99910.66;;;14.79;35.08
34124;BME280;13153;52.316;21.166;2023-03-15T11:08:20;99908.88;;;14.78;34.51
34124;BME280;13153;52.316;21.166;2023-03-15T11:10:56;99904.47;;;14.74;34.94
34124;BME280;13153;52.316;21.166;2023-03-15T11:13:29;99906.22;;;14.73;35.30
34124;BME280;13153;52.316;21.166;2023-03-15T11:18:56;99920.31;;;14.59;34.76
34124;BME280;13153;52.316;21.166;2023-03-15T11:21:33;99914.09;;;14.49;35.12
34124;BME280;13153;52.316;21.166;2023-03-15T11:24:03;99910.53;;;14.36;35.55
34124;BME280;13153;52.316;21.166;2023-03-15T11:26:37;99916.69;;;14.35;35.90
34124;BME280;13153;52.316;21.166;2023-03-15T11:29:26;99919.34;;;14.38;36.09
34124;BME280;13153;52.316;21.166;2023-03-15T11:31:53;99921.13;;;14.39;35.71
34124;BME280;13153;52.316;21.166;2023-03-15T11:34:49;99912.25;;;14.27;35.22
34124;BME280;13153;52.316;21.166;2023-03-15T11:37:28;99917.56;;;14.28;35.00
34124;BME280;13153;52.316;21.166;2023-03-15T11:45:42;99922.84;;;14.31;34.85
34124;BME280;13153;52.316;21.166;2023-03-15T11:48:18;99913.13;;;14.29;35.23
34124;BME280;13153;52.316;21.166;2023-03-15T11:50:46;99919.31;;;14.28;34.47
34124;BME280;13153;52.316;21.166;2023-03-15T11:53:16;99929.84;;;14.18;34.13
34124;BME280;13153;52.316;21.166;2023-03-15T11:55:49;99928.91;;;14.09;34.80
34124;BME280;13153;52.316;21.166;2023-03-15T11:58:40;99941.25;;;14.05;34.88
34124;BME280;13153;52.316;21.166;2023-03-15T12:01:25;99946.53;;;14.02;35.00
34124;BME280;13153;52.316;21.166;2023-03-15T12:06:58;99943.81;;;13.92;34.53
34124;BME280;13153;52.316;21.166;2023-03-15T12:17:58;99961.44;;;13.93;34.80
34124;BME280;13153;52.316;21.166;2023-03-15T12:23:55;99958.78;;;13.83;34.69
34124;BME280;13153;52.316;21.166;2023-03-15T12:29:09;99959.66;;;13.88;35.30
34124;BME280;13153;52.316;21.166;2023-03-15T12:31:51;99962.38;;;13.98;34.95
34124;BME280;13153;52.316;21.166;2023-03-15T12:37:03;99966.00;;;14.15;35.14
34124;BME280;13153;52.316;21.166;2023-03-15T12:39:48;99966.88;;;14.15;34.91
34124;BME280;13153;52.316;21.166;2023-03-15T12:55:49;100008.97;;;13.74;35.10
34124;BME280;13153;52.316;21.166;2023-03-15T12:58:19;100004.53;;;13.72;35.12
34124;BME280;13153;52.316;21.166;2023-03-15T13:00:46;100000.97;;;13.67;35.32
34124;BME280;13153;52.316;21.166;2023-03-15T13:03:25;100010.59;;;13.60;35.06
34124;BME280;13153;52.316;21.166;2023-03-15T13:06:22;100001.75;;;13.55;35.68
34124;BME280;13153;52.316;21.166;2023-03-15T13:09:33;100008.75;;;13.51;35.33
34124;BME280;13153;52.316;21.166;2023-03-15T13:12:18;99998.97;;;13.40;35.17
34124;BME280;13153;52.316;21.166;2023-03-15T13:15:02;100001.56;;;13.37;35.77
34124;BME280;13153;52.316;21.166;2023-03-15T13:17:42;100012.16;;;13.37;36.03
34124;BME280;13153;52.316;21.166;2023-03-15T13:23:17;100023.72;;;13.49;34.81
34124;BME280;13153;52.316;21.166;2023-03-15T13:26:16;100030.78;;;13.52;35.31
34124;BME280;13153;52.316;21.166;2023-03-15T13:28:53;100021.09;;;13.51;34.96
34124;BME280;13153;52.316;21.166;2023-03-15T13:31:26;100020.22;;;13.50;35.67
34124;BME280;13153;52.316;21.166;2023-03-15T13:33:57;100020.22;;;13.53;35.75
34124;BME280;13153;52.316;21.166;2023-03-15T13:36:53;100021.13;;;13.54;35.72
34124;BME280;13153;52.316;21.166;2023-03-15T13:39:23;100029.03;;;13.54;36.22
34124;BME280;13153;52.316;21.166;2023-03-15T13:42:05;100027.28;;;13.53;35.81
34124;BME280;13153;52.316;21.166;2023-03-15T13:44:33;100036.03;;;13.47;35.73
34124;BME280;13153;52.316;21.166;2023-03-15T13:46:59;100039.59;;;13.51;35.90
34124;BME280;13153;52.316;21.166;2023-03-15T13:49:32;100042.31;;;13.59;35.52
34124;BME280;13153;52.316;21.166;2023-03-15T13:52:01;100045.00;;;13.63;35.77
34124;BME280;13153;52.316;21.166;2023-03-15T13:54:33;100042.34;;;13.63;36.45
34124;BME280;13153;52.316;21.166;2023-03-15T13:59:38;100042.13;;;13.39;36.06
34124;BME280;13153;52.316;21.166;2023-03-15T14:02:21;100047.31;;;13.30;36.89
34124;BME280;13153;52.316;21.166;2023-03-15T14:04:57;100051.72;;;13.28;37.11
34124;BME280;13153;52.316;21.166;2023-03-15T14:07:39;100057.84;;;13.22;37.01
34124;BME280;13153;52.316;21.166;2023-03-15T14:12:58;100069.41;;;13.38;37.95
34124;BME280;13153;52.316;21.166;2023-03-15T14:15:40;100060.72;;;13.49;38.12